sensor_id;sensor_type;location;lat;lon;timestamp;P1;durP1;ratioP1;P2;durP2;ratioP2
1601;SDS011;794;48.592;9.634;2022-09-01T00:01:23;25.77;;;22.97;;
1601;SDS011;794;48.592;9.634;2022-09-01T00:04:05;23.50;;;20.97;;
1601;SDS011;794;48.592;9.634;2022-09-01T00:06:34;24.97;;;22.30;;
1601;SDS011;794;48.592;9.634;2022-09-01T00:09:04;27.30;;;22.70;;
1601;SDS011;794;48.592;9.634;2022-09-01T00:11:33;27.80;;;23.93;;
1601;SDS011;794;48.592;9.634;2022-09-01T00:14:03;27.77;;;23.00;;
1601;SDS011;794;48.592;9.634;2022-09-01T00:16:32;26.80;;;22.37;;
1601;SDS011;794;48.592;9.634;2022-09-01T00:18:59;26.60;;;23.87;;
1601;SDS011;794;48.592;9.634;2022-09-01T00:21:28;27.27;;;23.87;;
1601;SDS011;794;48.592;9.634;2022-09-01T00:23:56;30.77;;;26.63;;
1601;SDS011;794;48.592;9.634;2022-09-01T00:26:24;32.10;;;26.13;;
1601;SDS011;794;48.592;9.634;2022-09-01T00:28:52;29.70;;;25.37;;
1601;SDS011;794;48.592;9.634;2022-09-01T00:31:20;33.63;;;25.30;;
1601;SDS011;794;48.592;9.634;2022-09-01T00:33:49;32.27;;;25.80;;
1601;SDS011;794;48.592;9.634;2022-09-01T00:36:17;34.17;;;26.80;;
1601;SDS011;794;48.592;9.634;2022-09-01T00:38:44;36.97;;;29.00;;
1601;SDS011;794;48.592;9.634;2022-09-01T00:41:12;35.77;;;28.37;;
1601;SDS011;794;48.592;9.634;2022-09-01T00:43:42;35.33;;;31.47;;
1601;SDS011;794;48.592;9.634;2022-09-01T00:46:11;38.80;;;32.60;;
1601;SDS011;794;48.592;9.634;2022-09-01T00:48:41;39.33;;;29.87;;
1601;SDS011;794;48.592;9.634;2022-09-01T00:51:09;40.40;;;31.93;;
1601;SDS011;794;48.592;9.634;2022-09-01T00:53:37;39.00;;;30.90;;
1601;SDS011;794;48.592;9.634;2022-09-01T00:56:07;38.80;;;29.90;;
1601;SDS011;794;48.592;9.634;2022-09-01T00:58:35;34.90;;;28.67;;
1601;SDS011;794;48.592;9.634;2022-09-01T01:01:04;42.00;;;31.50;;
1601;SDS011;794;48.592;9.634;2022-09-01T01:03:32;42.30;;;33.63;;
1601;SDS011;794;48.592;9.634;2022-09-01T01:06:04;44.07;;;32.50;;
1601;SDS011;794;48.592;9.634;2022-09-01T01:08:34;42.97;;;31.30;;
1601;SDS011;794;48.592;9.634;2022-09-01T01:11:04;37.20;;;30.13;;
1601;SDS011;794;48.592;9.634;2022-09-01T01:13:40;36.13;;;29.93;;
1601;SDS011;794;48.592;9.634;2022-09-01T01:16:13;42.80;;;32.60;;
1601;SDS011;794;48.592;9.634;2022-09-01T01:18:40;41.40;;;32.17;;
1601;SDS011;794;48.592;9.634;2022-09-01T01:21:10;45.73;;;32.27;;
1601;SDS011;794;48.592;9.634;2022-09-01T01:24:00;43.13;;;31.80;;
1601;SDS011;794;48.592;9.634;2022-09-01T01:26:33;37.73;;;32.33;;
1601;SDS011;794;48.592;9.634;2022-09-01T01:29:00;43.47;;;31.70;;
1601;SDS011;794;48.592;9.634;2022-09-01T01:31:27;42.07;;;29.60;;
1601;SDS011;794;48.592;9.634;2022-09-01T01:33:56;40.80;;;33.20;;
1601;SDS011;794;48.592;9.634;2022-09-01T01:36:27;41.30;;;31.30;;
1601;SDS011;794;48.592;9.634;2022-09-01T01:38:56;43.07;;;31.67;;
1601;SDS011;794;48.592;9.634;2022-09-01T01:41:26;40.93;;;30.67;;
1601;SDS011;794;48.592;9.634;2022-09-01T01:43:55;35.17;;;29.10;;
1601;SDS011;794;48.592;9.634;2022-09-01T01:46:23;35.70;;;30.13;;
1601;SDS011;794;48.592;9.634;2022-09-01T01:48:51;36.57;;;30.63;;
1601;SDS011;794;48.592;9.634;2022-09-01T01:51:19;35.27;;;27.07;;
1601;SDS011;794;48.592;9.634;2022-09-01T01:53:49;34.93;;;29.77;;
1601;SDS011;794;48.592;9.634;2022-09-01T01:56:16;33.03;;;29.50;;
1601;SDS011;794;48.592;9.634;2022-09-01T01:58:44;34.10;;;26.33;;
1601;SDS011;794;48.592;9.634;2022-09-01T02:01:12;32.53;;;25.83;;
1601;SDS011;794;48.592;9.634;2022-09-01T02:03:41;33.60;;;27.40;;
1601;SDS011;794;48.592;9.634;2022-09-01T02:06:09;32.83;;;26.67;;
1601;SDS011;794;48.592;9.634;2022-09-01T02:08:37;29.60;;;26.03;;
1601;SDS011;794;48.592;9.634;2022-09-01T02:11:05;29.83;;;23.90;;
1601;SDS011;794;48.592;9.634;2022-09-01T02:13:32;27.30;;;24.40;;
1601;SDS011;794;48.592;9.634;2022-09-01T02:16:00;27.90;;;23.73;;
1601;SDS011;794;48.592;9.634;2022-09-01T02:18:31;30.70;;;25.77;;
1601;SDS011;794;48.592;9.634;2022-09-01T02:21:00;27.63;;;23.70;;
1601;SDS011;794;48.592;9.634;2022-09-01T02:23:28;27.63;;;23.90;;
1601;SDS011;794;48.592;9.634;2022-09-01T02:25:57;25.70;;;22.77;;
1601;SDS011;794;48.592;9.634;2022-09-01T02:28:26;28.33;;;25.30;;
1601;SDS011;794;48.592;9.634;2022-09-01T02:30:56;30.77;;;24.73;;
1601;SDS011;794;48.592;9.634;2022-09-01T02:33:27;29.10;;;23.13;;
1601;SDS011;794;48.592;9.634;2022-09-01T02:35:56;29.50;;;24.70;;
1601;SDS011;794;48.592;9.634;2022-09-01T02:38:25;31.37;;;25.13;;
1601;SDS011;794;48.592;9.634;2022-09-01T02:40:54;31.47;;;25.97;;
1601;SDS011;794;48.592;9.634;2022-09-01T02:43:22;32.03;;;27.30;;
1601;SDS011;794;48.592;9.634;2022-09-01T02:45:52;34.90;;;28.87;;
1601;SDS011;794;48.592;9.634;2022-09-01T02:48:24;35.43;;;25.93;;
1601;SDS011;794;48.592;9.634;2022-09-01T02:51:01;37.63;;;27.33;;
1601;SDS011;794;48.592;9.634;2022-09-01T02:53:29;33.63;;;27.63;;
1601;SDS011;794;48.592;9.634;2022-09-01T02:55:58;34.20;;;27.30;;
1601;SDS011;794;48.592;9.634;2022-09-01T02:58:26;35.70;;;28.77;;
1601;SDS011;794;48.592;9.634;2022-09-01T03:01:09;34.20;;;27.73;;
1601;SDS011;794;48.592;9.634;2022-09-01T03:03:37;32.17;;;28.10;;
1601;SDS011;794;48.592;9.634;2022-09-01T03:06:06;33.73;;;26.80;;
1601;SDS011;794;48.592;9.634;2022-09-01T03:08:34;36.53;;;26.80;;
1601;SDS011;794;48.592;9.634;2022-09-01T03:11:03;33.40;;;25.90;;
1601;SDS011;794;48.592;9.634;2022-09-01T03:13:35;32.93;;;26.07;;
1601;SDS011;794;48.592;9.634;2022-09-01T03:16:03;31.63;;;25.93;;
1601;SDS011;794;48.592;9.634;2022-09-01T03:18:30;30.03;;;25.73;;
1601;SDS011;794;48.592;9.634;2022-09-01T03:20:57;31.27;;;27.40;;
1601;SDS011;794;48.592;9.634;2022-09-01T03:23:28;30.50;;;24.73;;
1601;SDS011;794;48.592;9.634;2022-09-01T03:25:57;25.73;;;22.37;;
1601;SDS011;794;48.592;9.634;2022-09-01T03:28:25;28.20;;;22.90;;
1601;SDS011;794;48.592;9.634;2022-09-01T03:30:52;26.10;;;23.30;;
1601;SDS011;794;48.592;9.634;2022-09-01T03:33:22;32.93;;;25.43;;
1601;SDS011;794;48.592;9.634;2022-09-01T03:35:49;27.33;;;22.97;;
1601;SDS011;794;48.592;9.634;2022-09-01T03:38:16;31.63;;;25.30;;
1601;SDS011;794;48.592;9.634;2022-09-01T03:40:50;27.30;;;23.50;;
1601;SDS011;794;48.592;9.634;2022-09-01T03:43:18;27.63;;;24.73;;
1601;SDS011;794;48.592;9.634;2022-09-01T03:45:52;31.43;;;24.30;;
1601;SDS011;794;48.592;9.634;2022-09-01T03:48:20;26.90;;;23.57;;
1601;SDS011;794;48.592;9.634;2022-09-01T03:50:49;29.87;;;24.80;;
1601;SDS011;794;48.592;9.634;2022-09-01T03:53:16;30.20;;;22.30;;
1601;SDS011;794;48.592;9.634;2022-09-01T03:55:47;26.20;;;22.20;;
1601;SDS011;794;48.592;9.634;2022-09-01T03:58:17;26.13;;;21.93;;
1601;SDS011;794;48.592;9.634;2022-09-01T04:00:45;28.03;;;21.87;;
1601;SDS011;794;48.592;9.634;2022-09-01T04:03:15;29.60;;;23.83;;
1601;SDS011;794;48.592;9.634;2022-09-01T04:05:47;25.13;;;21.23;;
1601;SDS011;794;48.592;9.634;2022-09-01T04:08:15;26.33;;;21.23;;
1601;SDS011;794;48.592;9.634;2022-09-01T04:10:43;23.07;;;20.47;;
1601;SDS011;794;48.592;9.634;2022-09-01T04:13:13;23.03;;;20.27;;
1601;SDS011;794;48.592;9.634;2022-09-01T04:15:42;25.27;;;21.60;;
1601;SDS011;794;48.592;9.634;2022-09-01T04:18:09;26.10;;;20.57;;
1601;SDS011;794;48.592;9.634;2022-09-01T04:20:44;25.43;;;20.77;;
1601;SDS011;794;48.592;9.634;2022-09-01T04:23:16;24.20;;;21.43;;
1601;SDS011;794;48.592;9.634;2022-09-01T04:25:50;23.97;;;20.43;;
1601;SDS011;794;48.592;9.634;2022-09-01T04:28:21;24.80;;;20.17;;
1601;SDS011;794;48.592;9.634;2022-09-01T04:30:51;26.17;;;20.30;;
1601;SDS011;794;48.592;9.634;2022-09-01T04:33:20;26.63;;;19.97;;
1601;SDS011;794;48.592;9.634;2022-09-01T04:35:48;23.03;;;19.77;;
1601;SDS011;794;48.592;9.634;2022-09-01T04:38:20;22.47;;;19.87;;
1601;SDS011;794;48.592;9.634;2022-09-01T04:40:48;19.90;;;17.50;;
1601;SDS011;794;48.592;9.634;2022-09-01T04:43:16;20.30;;;18.17;;
1601;SDS011;794;48.592;9.634;2022-09-01T04:45:46;19.47;;;17.37;;
1601;SDS011;794;48.592;9.634;2022-09-01T04:48:16;20.40;;;18.00;;
1601;SDS011;794;48.592;9.634;2022-09-01T04:50:43;20.87;;;18.70;;
1601;SDS011;794;48.592;9.634;2022-09-01T04:53:13;19.30;;;17.30;;
1601;SDS011;794;48.592;9.634;2022-09-01T04:55:42;20.63;;;18.27;;
1601;SDS011;794;48.592;9.634;2022-09-01T04:58:10;19.00;;;16.17;;
1601;SDS011;794;48.592;9.634;2022-09-01T05:00:41;22.00;;;18.67;;
1601;SDS011;794;48.592;9.634;2022-09-01T05:03:10;17.77;;;15.97;;
1601;SDS011;794;48.592;9.634;2022-09-01T05:05:38;17.87;;;16.03;;
1601;SDS011;794;48.592;9.634;2022-09-01T05:08:07;23.30;;;17.87;;
1601;SDS011;794;48.592;9.634;2022-09-01T05:10:39;20.43;;;15.93;;
1601;SDS011;794;48.592;9.634;2022-09-01T05:13:08;20.00;;;17.90;;
1601;SDS011;794;48.592;9.634;2022-09-01T05:15:37;20.47;;;18.40;;
1601;SDS011;794;48.592;9.634;2022-09-01T05:18:12;18.63;;;16.10;;
1601;SDS011;794;48.592;9.634;2022-09-01T05:20:41;19.37;;;17.07;;
1601;SDS011;794;48.592;9.634;2022-09-01T05:23:09;18.90;;;16.90;;
1601;SDS011;794;48.592;9.634;2022-09-01T05:25:41;17.80;;;15.77;;
1601;SDS011;794;48.592;9.634;2022-09-01T05:28:09;20.10;;;17.07;;
1601;SDS011;794;48.592;9.634;2022-09-01T05:30:37;19.67;;;17.33;;
1601;SDS011;794;48.592;9.634;2022-09-01T05:33:05;19.30;;;17.47;;
1601;SDS011;794;48.592;9.634;2022-09-01T05:35:38;16.90;;;15.33;;
1601;SDS011;794;48.592;9.634;2022-09-01T05:38:09;18.80;;;16.80;;
1601;SDS011;794;48.592;9.634;2022-09-01T05:40:38;20.33;;;18.23;;
1601;SDS011;794;48.592;9.634;2022-09-01T05:43:06;21.87;;;19.60;;
1601;SDS011;794;48.592;9.634;2022-09-01T05:45:37;18.47;;;15.63;;
1601;SDS011;794;48.592;9.634;2022-09-01T05:48:06;22.40;;;16.33;;
1601;SDS011;794;48.592;9.634;2022-09-01T05:50:34;16.43;;;14.73;;
1601;SDS011;794;48.592;9.634;2022-09-01T05:53:06;18.07;;;16.37;;
1601;SDS011;794;48.592;9.634;2022-09-01T05:55:39;16.90;;;15.23;;
1601;SDS011;794;48.592;9.634;2022-09-01T05:58:08;16.83;;;15.23;;
1601;SDS011;794;48.592;9.634;2022-09-01T06:00:37;17.40;;;15.70;;
1601;SDS011;794;48.592;9.634;2022-09-01T06:03:05;16.60;;;14.90;;
1601;SDS011;794;48.592;9.634;2022-09-01T06:05:33;18.40;;;14.70;;
1601;SDS011;794;48.592;9.634;2022-09-01T06:08:01;17.93;;;15.97;;
1601;SDS011;794;48.592;9.634;2022-09-01T06:10:31;16.60;;;14.80;;
1601;SDS011;794;48.592;9.634;2022-09-01T06:13:01;17.07;;;15.33;;
1601;SDS011;794;48.592;9.634;2022-09-01T06:15:30;13.07;;;11.77;;
1601;SDS011;794;48.592;9.634;2022-09-01T06:17:57;13.80;;;12.40;;
1601;SDS011;794;48.592;9.634;2022-09-01T06:20:24;14.20;;;12.80;;
1601;SDS011;794;48.592;9.634;2022-09-01T06:22:51;10.57;;;9.57;;
1601;SDS011;794;48.592;9.634;2022-09-01T06:25:18;12.13;;;10.93;;
1601;SDS011;794;48.592;9.634;2022-09-01T06:27:47;11.30;;;10.10;;
1601;SDS011;794;48.592;9.634;2022-09-01T06:30:16;13.70;;;10.40;;
1601;SDS011;794;48.592;9.634;2022-09-01T06:32:45;9.87;;;8.97;;
1601;SDS011;794;48.592;9.634;2022-09-01T06:35:14;12.10;;;10.93;;
1601;SDS011;794;48.592;9.634;2022-09-01T06:37:42;11.10;;;10.10;;
1601;SDS011;794;48.592;9.634;2022-09-01T06:40:11;12.00;;;10.87;;
1601;SDS011;794;48.592;9.634;2022-09-01T06:42:41;12.60;;;11.40;;
1601;SDS011;794;48.592;9.634;2022-09-01T06:45:12;10.33;;;9.43;;
1601;SDS011;794;48.592;9.634;2022-09-01T06:47:41;10.30;;;9.37;;
1601;SDS011;794;48.592;9.634;2022-09-01T06:50:09;10.13;;;9.23;;
1601;SDS011;794;48.592;9.634;2022-09-01T06:52:39;11.67;;;10.53;;
1601;SDS011;794;48.592;9.634;2022-09-01T06:55:07;12.10;;;10.87;;
1601;SDS011;794;48.592;9.634;2022-09-01T06:57:35;11.50;;;10.30;;
1601;SDS011;794;48.592;9.634;2022-09-01T07:00:03;9.97;;;9.07;;
1601;SDS011;794;48.592;9.634;2022-09-01T07:02:43;10.13;;;9.13;;
1601;SDS011;794;48.592;9.634;2022-09-01T07:05:10;10.30;;;9.40;;
1601;SDS011;794;48.592;9.634;2022-09-01T07:07:41;9.47;;;8.60;;
1601;SDS011;794;48.592;9.634;2022-09-01T07:10:12;9.70;;;8.80;;
1601;SDS011;794;48.592;9.634;2022-09-01T07:12:39;10.23;;;9.33;;
1601;SDS011;794;48.592;9.634;2022-09-01T07:15:10;11.90;;;9.80;;
1601;SDS011;794;48.592;9.634;2022-09-01T07:17:42;11.07;;;10.07;;
1601;SDS011;794;48.592;9.634;2022-09-01T07:20:13;9.70;;;8.70;;
1601;SDS011;794;48.592;9.634;2022-09-01T07:22:40;9.63;;;8.77;;
1601;SDS011;794;48.592;9.634;2022-09-01T07:25:08;8.40;;;7.60;;
1601;SDS011;794;48.592;9.634;2022-09-01T07:27:36;10.27;;;9.27;;
1601;SDS011;794;48.592;9.634;2022-09-01T07:30:04;9.30;;;8.40;;
1601;SDS011;794;48.592;9.634;2022-09-01T07:32:33;9.23;;;8.33;;
1601;SDS011;794;48.592;9.634;2022-09-01T07:35:02;8.43;;;7.73;;
1601;SDS011;794;48.592;9.634;2022-09-01T07:37:30;9.20;;;8.40;;
1601;SDS011;794;48.592;9.634;2022-09-01T07:40:02;8.20;;;7.50;;
1601;SDS011;794;48.592;9.634;2022-09-01T07:42:30;9.03;;;8.17;;
1601;SDS011;794;48.592;9.634;2022-09-01T07:44:57;9.57;;;8.67;;
1601;SDS011;794;48.592;9.634;2022-09-01T07:47:24;8.40;;;7.70;;
1601;SDS011;794;48.592;9.634;2022-09-01T07:49:53;9.23;;;8.43;;
1601;SDS011;794;48.592;9.634;2022-09-01T07:52:21;8.90;;;8.10;;
1601;SDS011;794;48.592;9.634;2022-09-01T07:54:49;8.60;;;7.80;;
1601;SDS011;794;48.592;9.634;2022-09-01T07:57:16;8.30;;;7.50;;
1601;SDS011;794;48.592;9.634;2022-09-01T07:59:43;8.37;;;7.67;;
1601;SDS011;794;48.592;9.634;2022-09-01T08:02:10;9.50;;;8.60;;
1601;SDS011;794;48.592;9.634;2022-09-01T08:04:37;9.23;;;8.47;;
1601;SDS011;794;48.592;9.634;2022-09-01T08:07:04;8.50;;;7.70;;
1601;SDS011;794;48.592;9.634;2022-09-01T08:09:33;11.47;;;9.30;;
1601;SDS011;794;48.592;9.634;2022-09-01T08:12:03;10.27;;;9.37;;
1601;SDS011;794;48.592;9.634;2022-09-01T08:14:30;9.33;;;8.63;;
1601;SDS011;794;48.592;9.634;2022-09-01T08:16:57;8.57;;;7.80;;
1601;SDS011;794;48.592;9.634;2022-09-01T08:19:24;8.23;;;7.43;;
1601;SDS011;794;48.592;9.634;2022-09-01T08:21:51;10.13;;;7.10;;
1601;SDS011;794;48.592;9.634;2022-09-01T08:24:18;8.07;;;7.37;;
1601;SDS011;794;48.592;9.634;2022-09-01T08:26:47;8.63;;;7.83;;
1601;SDS011;794;48.592;9.634;2022-09-01T08:29:14;8.33;;;7.50;;
1601;SDS011;794;48.592;9.634;2022-09-01T08:31:41;8.40;;;7.60;;
1601;SDS011;794;48.592;9.634;2022-09-01T08:34:07;8.50;;;7.77;;
1601;SDS011;794;48.592;9.634;2022-09-01T08:36:36;9.63;;;8.73;;
1601;SDS011;794;48.592;9.634;2022-09-01T08:39:04;8.60;;;7.80;;
1601;SDS011;794;48.592;9.634;2022-09-01T08:41:41;8.70;;;7.80;;
1601;SDS011;794;48.592;9.634;2022-09-01T08:44:17;9.83;;;8.93;;
1601;SDS011;794;48.592;9.634;2022-09-01T08:46:52;10.50;;;9.50;;
1601;SDS011;794;48.592;9.634;2022-09-01T08:49:23;10.07;;;9.07;;
1601;SDS011;794;48.592;9.634;2022-09-01T08:51:52;8.90;;;8.00;;
1601;SDS011;794;48.592;9.634;2022-09-01T08:54:24;7.23;;;6.63;;
1601;SDS011;794;48.592;9.634;2022-09-01T08:56:58;6.93;;;6.33;;
1601;SDS011;794;48.592;9.634;2022-09-01T08:59:31;7.63;;;6.67;;
1601;SDS011;794;48.592;9.634;2022-09-01T09:02:00;8.53;;;7.90;;
1601;SDS011;794;48.592;9.634;2022-09-01T09:04:41;7.30;;;6.70;;
1601;SDS011;794;48.592;9.634;2022-09-01T09:07:20;8.87;;;8.13;;
1601;SDS011;794;48.592;9.634;2022-09-01T09:09:55;7.80;;;7.00;;
1601;SDS011;794;48.592;9.634;2022-09-01T09:12:31;6.60;;;6.00;;
1601;SDS011;794;48.592;9.634;2022-09-01T09:15:13;7.20;;;6.60;;
1601;SDS011;794;48.592;9.634;2022-09-01T09:17:45;8.20;;;6.60;;
1601;SDS011;794;48.592;9.634;2022-09-01T09:20:20;7.37;;;6.33;;
1601;SDS011;794;48.592;9.634;2022-09-01T09:22:47;7.43;;;6.20;;
1601;SDS011;794;48.592;9.634;2022-09-01T09:25:23;7.73;;;7.03;;
1601;SDS011;794;48.592;9.634;2022-09-01T09:27:53;7.77;;;7.10;;
1601;SDS011;794;48.592;9.634;2022-09-01T09:30:25;8.00;;;7.20;;
1601;SDS011;794;48.592;9.634;2022-09-01T09:32:54;7.83;;;7.13;;
1601;SDS011;794;48.592;9.634;2022-09-01T09:35:34;7.60;;;6.90;;
1601;SDS011;794;48.592;9.634;2022-09-01T09:38:16;7.37;;;6.70;;
1601;SDS011;794;48.592;9.634;2022-09-01T09:40:59;7.30;;;6.70;;
1601;SDS011;794;48.592;9.634;2022-09-01T09:43:28;6.40;;;5.80;;
1601;SDS011;794;48.592;9.634;2022-09-01T09:49:08;7.13;;;6.43;;
1601;SDS011;794;48.592;9.634;2022-09-01T09:51:38;6.07;;;5.47;;
1601;SDS011;794;48.592;9.634;2022-09-01T09:54:10;7.13;;;6.50;;
1601;SDS011;794;48.592;9.634;2022-09-01T09:56:48;7.73;;;7.13;;
1601;SDS011;794;48.592;9.634;2022-09-01T09:59:30;9.30;;;6.53;;
1601;SDS011;794;48.592;9.634;2022-09-01T10:02:12;7.60;;;6.90;;
1601;SDS011;794;48.592;9.634;2022-09-01T10:04:49;7.20;;;6.70;;
1601;SDS011;794;48.592;9.634;2022-09-01T10:07:31;10.60;;;7.50;;
1601;SDS011;794;48.592;9.634;2022-09-01T10:10:00;10.00;;;8.30;;
1601;SDS011;794;48.592;9.634;2022-09-01T10:12:29;8.30;;;6.87;;
1601;SDS011;794;48.592;9.634;2022-09-01T10:14:59;8.17;;;7.40;;
1601;SDS011;794;48.592;9.634;2022-09-01T10:17:31;6.80;;;6.10;;
1601;SDS011;794;48.592;9.634;2022-09-01T10:20:03;7.23;;;6.67;;
1601;SDS011;794;48.592;9.634;2022-09-01T10:22:34;6.17;;;5.67;;
1601;SDS011;794;48.592;9.634;2022-09-01T10:25:06;6.33;;;5.83;;
1601;SDS011;794;48.592;9.634;2022-09-01T10:27:35;5.77;;;5.37;;
1601;SDS011;794;48.592;9.634;2022-09-01T10:30:06;6.07;;;5.53;;
1601;SDS011;794;48.592;9.634;2022-09-01T10:32:41;5.47;;;4.87;;
1601;SDS011;794;48.592;9.634;2022-09-01T10:35:12;6.10;;;4.97;;
1601;SDS011;794;48.592;9.634;2022-09-01T10:37:48;5.37;;;4.53;;
1601;SDS011;794;48.592;9.634;2022-09-01T10:49:17;6.97;;;6.37;;
1601;SDS011;794;48.592;9.634;2022-09-01T10:51:46;7.27;;;6.43;;
1601;SDS011;794;48.592;9.634;2022-09-01T10:57:21;8.00;;;7.20;;
1601;SDS011;794;48.592;9.634;2022-09-01T11:00:14;7.20;;;6.57;;
1601;SDS011;794;48.592;9.634;2022-09-01T11:06:06;7.37;;;6.77;;
1601;SDS011;794;48.592;9.634;2022-09-01T11:08:42;6.77;;;6.27;;
1601;SDS011;794;48.592;9.634;2022-09-01T11:11:19;7.07;;;6.47;;
1601;SDS011;794;48.592;9.634;2022-09-01T11:13:54;7.93;;;7.33;;
1601;SDS011;794;48.592;9.634;2022-09-01T11:16:24;6.30;;;5.70;;
1601;SDS011;794;48.592;9.634;2022-09-01T11:19:15;7.00;;;6.40;;
1601;SDS011;794;48.592;9.634;2022-09-01T11:22:08;7.03;;;6.10;;
1601;SDS011;794;48.592;9.634;2022-09-01T11:28:06;9.17;;;6.70;;
1601;SDS011;794;48.592;9.634;2022-09-01T11:30:49;7.03;;;5.73;;
1601;SDS011;794;48.592;9.634;2022-09-01T11:36:15;6.87;;;6.03;;
1601;SDS011;794;48.592;9.634;2022-09-01T11:38:52;6.70;;;6.20;;
1601;SDS011;794;48.592;9.634;2022-09-01T11:41:25;8.17;;;5.63;;
1601;SDS011;794;48.592;9.634;2022-09-01T11:43:58;5.60;;;5.10;;
1601;SDS011;794;48.592;9.634;2022-09-01T11:46:28;6.97;;;5.40;;
1601;SDS011;794;48.592;9.634;2022-09-01T11:49:02;5.63;;;5.23;;
1601;SDS011;794;48.592;9.634;2022-09-01T11:51:51;5.77;;;5.27;;
1601;SDS011;794;48.592;9.634;2022-09-01T11:54:20;6.60;;;6.00;;
1601;SDS011;794;48.592;9.634;2022-09-01T11:56:50;5.87;;;5.30;;
1601;SDS011;794;48.592;9.634;2022-09-01T11:59:33;7.07;;;6.47;;
1601;SDS011;794;48.592;9.634;2022-09-01T12:02:02;5.93;;;5.47;;
1601;SDS011;794;48.592;9.634;2022-09-01T12:04:31;6.60;;;6.10;;
1601;SDS011;794;48.592;9.634;2022-09-01T12:07:01;5.50;;;5.07;;
1601;SDS011;794;48.592;9.634;2022-09-01T12:09:36;6.47;;;5.87;;
1601;SDS011;794;48.592;9.634;2022-09-01T12:14:54;7.20;;;6.50;;
1601;SDS011;794;48.592;9.634;2022-09-01T12:17:24;4.37;;;4.07;;
1601;SDS011;794;48.592;9.634;2022-09-01T12:19:51;11.60;;;5.50;;
1601;SDS011;794;48.592;9.634;2022-09-01T12:22:20;5.80;;;5.40;;
1601;SDS011;794;48.592;9.634;2022-09-01T12:24:50;5.27;;;4.87;;
1601;SDS011;794;48.592;9.634;2022-09-01T12:27:42;6.27;;;5.77;;
1601;SDS011;794;48.592;9.634;2022-09-01T12:30:12;5.67;;;5.20;;
1601;SDS011;794;48.592;9.634;2022-09-01T12:32:45;6.67;;;6.07;;
1601;SDS011;794;48.592;9.634;2022-09-01T12:35:14;6.20;;;5.60;;
1601;SDS011;794;48.592;9.634;2022-09-01T12:37:43;6.17;;;5.67;;
1601;SDS011;794;48.592;9.634;2022-09-01T12:40:29;6.57;;;5.83;;
1601;SDS011;794;48.592;9.634;2022-09-01T12:42:59;6.87;;;6.27;;
1601;SDS011;794;48.592;9.634;2022-09-01T12:45:38;6.20;;;5.47;;
1601;SDS011;794;48.592;9.634;2022-09-01T12:48:24;6.90;;;6.40;;
1601;SDS011;794;48.592;9.634;2022-09-01T12:50:55;5.67;;;5.20;;
1601;SDS011;794;48.592;9.634;2022-09-01T12:56:38;5.30;;;4.90;;
1601;SDS011;794;48.592;9.634;2022-09-01T12:59:06;5.00;;;4.60;;
1601;SDS011;794;48.592;9.634;2022-09-01T13:01:36;6.27;;;5.77;;
1601;SDS011;794;48.592;9.634;2022-09-01T13:06:55;5.47;;;4.97;;
1601;SDS011;794;48.592;9.634;2022-09-01T13:09:25;5.47;;;4.93;;
1601;SDS011;794;48.592;9.634;2022-09-01T13:12:04;5.63;;;5.13;;
1601;SDS011;794;48.592;9.634;2022-09-01T13:14:39;5.17;;;4.60;;
1601;SDS011;794;48.592;9.634;2022-09-01T13:17:07;4.90;;;4.50;;
1601;SDS011;794;48.592;9.634;2022-09-01T13:19:35;5.50;;;5.00;;
1601;SDS011;794;48.592;9.634;2022-09-01T13:22:07;5.07;;;4.67;;
1601;SDS011;794;48.592;9.634;2022-09-01T13:24:35;5.87;;;5.40;;
1601;SDS011;794;48.592;9.634;2022-09-01T13:27:04;5.20;;;4.80;;
1601;SDS011;794;48.592;9.634;2022-09-01T13:29:32;5.57;;;5.17;;
1601;SDS011;794;48.592;9.634;2022-09-01T13:32:00;5.80;;;5.30;;
1601;SDS011;794;48.592;9.634;2022-09-01T13:34:33;6.33;;;5.30;;
1601;SDS011;794;48.592;9.634;2022-09-01T13:37:02;4.60;;;4.20;;
1601;SDS011;794;48.592;9.634;2022-09-01T13:39:29;6.90;;;6.20;;
1601;SDS011;794;48.592;9.634;2022-09-01T13:42:07;5.90;;;5.50;;
1601;SDS011;794;48.592;9.634;2022-09-01T13:47:42;5.73;;;5.23;;
1601;SDS011;794;48.592;9.634;2022-09-01T13:50:16;6.33;;;5.77;;
1601;SDS011;794;48.592;9.634;2022-09-01T13:52:45;4.93;;;4.43;;
1601;SDS011;794;48.592;9.634;2022-09-01T13:55:15;5.50;;;5.10;;
1601;SDS011;794;48.592;9.634;2022-09-01T13:57:50;6.13;;;5.53;;
1601;SDS011;794;48.592;9.634;2022-09-01T14:00:18;5.97;;;5.47;;
1601;SDS011;794;48.592;9.634;2022-09-01T14:02:52;4.80;;;4.50;;
1601;SDS011;794;48.592;9.634;2022-09-01T14:05:22;4.60;;;4.20;;
1601;SDS011;794;48.592;9.634;2022-09-01T14:07:50;4.87;;;4.40;;
1601;SDS011;794;48.592;9.634;2022-09-01T14:10:19;4.83;;;4.53;;
1601;SDS011;794;48.592;9.634;2022-09-01T14:12:48;5.00;;;4.60;;
1601;SDS011;794;48.592;9.634;2022-09-01T14:15:22;4.93;;;4.53;;
1601;SDS011;794;48.592;9.634;2022-09-01T14:17:52;5.40;;;5.00;;
1601;SDS011;794;48.592;9.634;2022-09-01T14:20:25;5.00;;;4.30;;
1601;SDS011;794;48.592;9.634;2022-09-01T14:22:55;5.70;;;5.20;;
1601;SDS011;794;48.592;9.634;2022-09-01T14:25:28;4.87;;;4.47;;
1601;SDS011;794;48.592;9.634;2022-09-01T14:27:58;5.10;;;4.70;;
1601;SDS011;794;48.592;9.634;2022-09-01T14:30:27;4.63;;;4.33;;
1601;SDS011;794;48.592;9.634;2022-09-01T14:32:56;5.07;;;4.67;;
1601;SDS011;794;48.592;9.634;2022-09-01T14:35:25;5.83;;;5.40;;
1601;SDS011;794;48.592;9.634;2022-09-01T14:37:57;5.23;;;4.70;;
1601;SDS011;794;48.592;9.634;2022-09-01T14:40:30;5.57;;;5.07;;
1601;SDS011;794;48.592;9.634;2022-09-01T14:43:02;5.90;;;5.30;;
1601;SDS011;794;48.592;9.634;2022-09-01T14:45:30;7.70;;;5.50;;
1601;SDS011;794;48.592;9.634;2022-09-01T14:47:58;5.30;;;4.80;;
1601;SDS011;794;48.592;9.634;2022-09-01T14:50:27;5.47;;;5.07;;
1601;SDS011;794;48.592;9.634;2022-09-01T14:52:57;5.73;;;5.00;;
1601;SDS011;794;48.592;9.634;2022-09-01T14:55:26;5.27;;;4.77;;
1601;SDS011;794;48.592;9.634;2022-09-01T14:57:54;4.80;;;4.40;;
1601;SDS011;794;48.592;9.634;2022-09-01T15:00:26;5.00;;;4.60;;
1601;SDS011;794;48.592;9.634;2022-09-01T15:02:55;4.30;;;4.00;;
1601;SDS011;794;48.592;9.634;2022-09-01T15:05:23;4.93;;;4.53;;
1601;SDS011;794;48.592;9.634;2022-09-01T15:07:52;5.60;;;5.20;;
1601;SDS011;794;48.592;9.634;2022-09-01T15:10:20;5.10;;;4.60;;
1601;SDS011;794;48.592;9.634;2022-09-01T15:12:48;5.00;;;4.60;;
1601;SDS011;794;48.592;9.634;2022-09-01T15:15:16;4.30;;;4.00;;
1601;SDS011;794;48.592;9.634;2022-09-01T15:17:44;4.50;;;4.10;;
1601;SDS011;794;48.592;9.634;2022-09-01T15:20:21;5.00;;;3.90;;
1601;SDS011;794;48.592;9.634;2022-09-01T15:23:06;4.80;;;4.40;;
1601;SDS011;794;48.592;9.634;2022-09-01T15:25:34;5.50;;;5.10;;
1601;SDS011;794;48.592;9.634;2022-09-01T15:28:01;6.53;;;4.63;;
1601;SDS011;794;48.592;9.634;2022-09-01T15:30:28;5.47;;;5.07;;
1601;SDS011;794;48.592;9.634;2022-09-01T15:33:08;7.20;;;5.23;;
1601;SDS011;794;48.592;9.634;2022-09-01T15:35:35;5.23;;;4.83;;
1601;SDS011;794;48.592;9.634;2022-09-01T15:38:04;4.63;;;4.30;;
1601;SDS011;794;48.592;9.634;2022-09-01T15:40:32;5.97;;;4.97;;
1601;SDS011;794;48.592;9.634;2022-09-01T15:43:08;5.10;;;4.60;;
1601;SDS011;794;48.592;9.634;2022-09-01T15:45:35;5.30;;;4.80;;
1601;SDS011;794;48.592;9.634;2022-09-01T15:48:03;4.30;;;4.00;;
1601;SDS011;794;48.592;9.634;2022-09-01T15:50:39;5.00;;;4.60;;
1601;SDS011;794;48.592;9.634;2022-09-01T15:53:07;5.33;;;4.83;;
1601;SDS011;794;48.592;9.634;2022-09-01T15:55:39;4.43;;;4.13;;
1601;SDS011;794;48.592;9.634;2022-09-01T15:58:10;10.77;;;4.37;;
1601;SDS011;794;48.592;9.634;2022-09-01T16:00:47;5.40;;;5.00;;
1601;SDS011;794;48.592;9.634;2022-09-01T16:03:15;4.77;;;4.37;;
1601;SDS011;794;48.592;9.634;2022-09-01T16:05:44;4.80;;;4.40;;
1601;SDS011;794;48.592;9.634;2022-09-01T16:08:13;5.27;;;4.80;;
1601;SDS011;794;48.592;9.634;2022-09-01T16:10:44;5.13;;;4.77;;
1601;SDS011;794;48.592;9.634;2022-09-01T16:13:12;4.77;;;4.37;;
1601;SDS011;794;48.592;9.634;2022-09-01T16:15:41;4.60;;;4.20;;